Time;durP1;ratioP1;P1;durP2;ratioP2;P2;SDS_P1;SDS_P2;PMS_P1;PMS_P2;Temp;Humidity;BMP_temperature;BMP_pressure;BME280_temperature;BME280_humidity;BME280_pressure;Samples;Min_cycle;Max_cycle;Signal;HPM_P1;HPM_P2
2023/01/31 00:01:05;;;;;;;0.90;0.90;;;;;;;2.57;89.59;98947.13;5050228;28;20224;-54
2023/01/31 00:03:33;;;;;;;0.90;0.90;;;;;;;2.62;89.25;98949.59;5047819;28;20196;-55
2023/01/31 00:06:13;;;;;;;0.70;0.70;;;;;;;2.71;88.22;98944.53;5050427;28;20228;-55
2023/01/31 00:08:40;;;;;;;0.50;0.50;;;;;;;2.72;88.11;98947.88;5050503;28;20220;-56
2023/01/31 00:11:07;;;;;;;0.60;0.60;;;;;;;2.79;87.54;98940.22;5049266;28;20193;-55
2023/01/31 00:13:34;;;;;;;0.80;0.80;;;;;;;2.82;87.85;98950.34;5050312;28;20197;-55
2023/01/31 00:16:01;;;;;;;0.60;0.60;;;;;;;2.77;87.06;98924.22;5050010;28;20208;-55
2023/01/31 00:18:28;;;;;;;0.60;0.60;;;;;;;2.87;87.19;98930.91;5050456;28;20728;-55
2023/01/31 00:20:56;;;;;;;1.83;1.73;;;;;;;2.98;86.82;98944.31;5050025;28;20229;-55
2023/01/31 00:23:23;;;;;;;0.70;0.70;;;;;;;3.06;85.75;98952.72;5050333;28;20774;-55
2023/01/31 00:25:50;;;;;;;0.60;0.60;;;;;;;3.06;85.50;98951.88;5049640;28;20715;-55
2023/01/31 00:28:16;;;;;;;0.60;0.60;;;;;;;3.15;84.42;98941.66;5050217;28;20255;-55
2023/01/31 00:30:43;;;;;;;0.50;0.50;;;;;;;3.20;83.85;98949.25;5050021;28;20193;-55
2023/01/31 00:33:10;;;;;;;0.53;0.53;;;;;;;3.22;84.35;98945.84;5050199;28;20201;-55
2023/01/31 00:35:39;;;;;;;0.97;0.97;;;;;;;3.24;84.72;98930.59;5052609;28;20204;-55
2023/01/31 00:38:07;;;;;;;0.50;0.50;;;;;;;3.27;84.55;98925.50;5051945;28;20694;-55
2023/01/31 00:40:34;;;;;;;0.60;0.60;;;;;;;3.29;84.38;98918.75;5048201;28;20224;-55
2023/01/31 00:43:01;;;;;;;0.53;0.53;;;;;;;3.32;84.56;98928.88;5052505;28;20216;-55
2023/01/31 00:45:28;;;;;;;0.50;0.50;;;;;;;3.30;84.57;98922.94;5054149;28;20661;-55
2023/01/31 00:47:55;;;;;;;0.50;0.50;;;;;;;3.30;84.75;98925.47;5053598;28;20639;-55
2023/01/31 00:50:21;;;;;;;0.63;0.63;;;;;;;3.29;84.88;98927.22;5047061;28;20204;-55
2023/01/31 00:52:48;;;;;;;0.60;0.60;;;;;;;3.35;84.72;98933.91;5053561;28;20205;-55
2023/01/31 00:55:16;;;;;;;0.60;0.60;;;;;;;3.34;85.31;98929.69;5052993;28;20205;-54
2023/01/31 00:57:43;;;;;;;0.60;0.60;;;;;;;3.35;85.12;98939.81;5053687;28;20212;-55
2023/01/31 01:00:11;;;;;;;0.50;0.50;;;;;;;3.40;84.95;98937.22;5053155;28;20581;-55
2023/01/31 01:02:38;;;;;;;0.50;0.50;;;;;;;3.39;84.66;98936.41;5053320;28;20211;-55
2023/01/31 01:05:06;;;;;;;0.53;0.53;;;;;;;3.47;84.02;98933.78;5052925;28;20682;-55
2023/01/31 01:07:32;;;;;;;0.60;0.60;;;;;;;3.46;84.21;98932.09;5053624;28;20208;-55
2023/01/31 01:09:59;;;;;;;0.50;0.50;;;;;;;3.50;84.03;98938.81;5053250;28;20189;-55
2023/01/31 01:12:27;;;;;;;0.67;0.67;;;;;;;3.50;82.87;98931.22;5053041;28;20242;-55
2023/01/31 01:14:54;;;;;;;0.80;0.80;;;;;;;3.59;83.02;98942.09;5053107;28;20262;-54
2023/01/31 01:17:21;;;;;;;0.60;0.60;;;;;;;3.40;82.84;98896.69;5052759;28;20234;-54
2023/01/31 01:19:48;;;;;;;0.60;0.60;;;;;;;3.63;83.41;98945.47;5052981;28;20270;-54
2023/01/31 01:22:15;;;;;;;0.67;0.67;;;;;;;3.62;83.61;98947.16;5049759;28;20255;-55
2023/01/31 01:24:42;;;;;;;0.87;0.87;;;;;;;3.56;83.67;98926.94;5052768;28;20580;-55
2023/01/31 01:27:09;;;;;;;0.70;0.70;;;;;;;3.51;84.40;98912.63;5052954;28;20193;-55
2023/01/31 01:29:38;;;;;;;0.60;0.60;;;;;;;3.60;84.90;98931.13;5052713;28;20607;-55
2023/01/31 01:32:06;;;;;;;0.70;0.70;;;;;;;3.57;85.73;98923.56;5052703;28;20200;-55
2023/01/31 01:34:34;;;;;;;0.60;0.60;;;;;;;3.61;85.17;98924.38;5052337;28;20197;-55
2023/01/31 01:37:08;;;;;;;0.60;0.60;;;;;;;3.60;85.03;98925.22;5051488;28;20200;-55
2023/01/31 01:39:35;;;;;;;0.50;0.50;;;;;;;3.67;85.10;98917.53;5052053;28;20223;-55
2023/01/31 01:42:02;;;;;;;0.57;0.57;;;;;;;3.66;85.44;98909.94;5052455;28;20246;-55
2023/01/31 01:44:49;;;;;;;0.67;0.67;;;;;;;3.68;86.00;98904.00;5052314;28;20664;-55
2023/01/31 01:47:23;;;;;;;0.90;0.90;;;;;;;3.76;86.07;98905.63;5051190;28;20200;-55
2023/01/31 01:49:53;;;;;;;0.60;0.60;;;;;;;3.67;86.39;98901.50;5052520;28;20200;-55
2023/01/31 01:52:22;;;;;;;0.53;0.53;;;;;;;3.75;86.21;98903.97;5051426;28;20232;-55
2023/01/31 01:54:53;;;;;;;0.60;0.60;;;;;;;3.80;85.48;98904.72;5052368;28;20522;-55
2023/01/31 01:57:26;;;;;;;0.60;0.60;;;;;;;3.87;84.73;98901.28;5052170;28;20258;-55
2023/01/31 02:00:04;;;;;;;0.50;0.50;;;;;;;3.90;84.39;98894.47;5048082;28;20216;-55
2023/01/31 02:02:30;;;;;;;3.73;1.77;;;;;;;3.97;84.44;98895.25;5051790;28;20219;-55
2023/01/31 02:04:57;;;;;;;0.50;0.50;;;;;;;3.93;84.45;98876.69;5051661;28;20228;-55
2023/01/31 02:07:24;;;;;;;0.53;0.53;;;;;;;4.06;84.64;98890.91;5052103;28;20209;-55
2023/01/31 02:09:57;;;;;;;0.60;0.60;;;;;;;4.06;85.08;98870.63;5051559;28;20577;-54
2023/01/31 02:12:25;;;;;;;0.60;0.60;;;;;;;3.95;85.79;98856.38;5052028;28;20201;-54
2023/01/31 02:14:54;;;;;;;0.50;0.50;;;;;;;3.97;86.60;98868.19;5051563;28;20262;-55
2023/01/31 02:17:21;;;;;;;0.90;0.90;;;;;;;3.93;86.75;98868.25;5051834;28;20197;-55
2023/01/31 02:20:01;;;;;;;0.60;0.60;;;;;;;4.12;86.19;98893.34;5049648;28;20217;-55
2023/01/31 02:22:33;;;;;;;0.67;0.67;;;;;;;4.12;86.19;98879.84;5051547;28;20211;-55
2023/01/31 02:25:41;;;;;;;0.60;0.60;;;;;;;4.20;85.83;98883.94;5050023;28;21111;-55
2023/01/31 02:28:37;;;;;;;0.50;0.50;;;;;;;4.23;85.76;98883.91;5051493;28;20211;-55
2023/01/31 02:31:46;;;;;;;0.57;0.57;;;;;;;4.25;85.68;98881.34;5051494;28;20193;-55
2023/01/31 02:34:19;;;;;;;0.60;0.60;;;;;;;4.26;85.30;98884.72;5050608;28;20196;-55
2023/01/31 02:37:00;;;;;;;0.60;0.60;;;;;;;4.29;85.30;98880.47;5051323;28;20201;-56
2023/01/31 02:39:35;;;;;;;0.60;0.60;;;;;;;4.33;84.87;98878.72;5051509;28;20204;-55
2023/01/31 02:42:14;;;;;;;0.50;0.50;;;;;;;4.29;84.28;98856.78;5050707;28;20196;-55
2023/01/31 02:44:58;;;;;;;0.60;0.60;;;;;;;4.44;84.54;98881.94;5051402;28;20212;-55
2023/01/31 02:47:39;;;;;;;0.50;0.50;;;;;;;4.47;84.82;98886.97;5051701;28;20208;-55
2023/01/31 02:50:14;;;;;;;0.50;0.50;;;;;;;4.48;84.82;98889.50;5045709;28;20208;-55
2023/01/31 02:52:49;;;;;;;0.60;0.60;;;;;;;4.48;84.64;98889.50;5049696;28;20200;-55
2023/01/31 02:58:08;;;;;;;0.70;0.70;;;;;;;4.42;85.42;98883.66;5050550;28;20203;-55
2023/01/31 03:00:39;;;;;;;0.60;0.60;;;;;;;4.52;84.94;98880.16;5050929;28;20227;-55
2023/01/31 03:03:08;;;;;;;0.60;0.60;;;;;;;4.58;84.63;98891.06;5049775;28;20730;-55
2023/01/31 03:05:36;;;;;;;0.50;0.50;;;;;;;4.54;84.16;98873.34;5050916;28;20270;-55
2023/01/31 03:08:06;;;;;;;0.50;0.50;;;;;;;4.55;84.17;98869.94;5050824;28;20258;-55
2023/01/31 03:10:52;;;;;;;0.70;0.70;;;;;;;4.56;83.03;98871.59;5050991;28;20220;-55
2023/01/31 03:13:33;;;;;;;0.70;0.70;;;;;;;4.66;82.65;98885.84;5050779;28;20200;-55
2023/01/31 03:19:12;;;;;;;0.60;0.60;;;;;;;4.63;82.72;98883.34;5012162;28;20197;-56
2023/01/31 03:21:44;;;;;;;0.60;0.60;;;;;;;4.58;81.75;98882.59;5046571;28;20675;-55
2023/01/31 03:24:13;;;;;;;0.90;0.90;;;;;;;4.57;80.79;98891.06;5050409;28;20192;-55
2023/01/31 03:26:41;;;;;;;0.50;0.50;;;;;;;4.55;80.18;98882.63;5050998;28;20201;-55
2023/01/31 03:29:11;;;;;;;0.60;0.60;;;;;;;4.50;79.89;98886.94;5050445;28;20250;-56
2023/01/31 03:31:41;;;;;;;0.63;0.63;;;;;;;4.50;79.12;98886.94;5045410;28;20730;-56
2023/01/31 03:34:11;;;;;;;0.50;0.50;;;;;;;4.53;78.25;98886.88;5050517;28;20204;-55
2023/01/31 03:36:46;;;;;;;0.50;0.50;;;;;;;4.50;78.92;98892.00;5050832;28;20200;-57
2023/01/31 03:39:23;;;;;;;0.70;0.70;;;;;;;4.42;78.44;98883.66;5050471;28;20197;-57
2023/01/31 03:41:57;;;;;;;0.90;0.90;;;;;;;4.38;76.91;98889.63;5046266;28;20219;-57
2023/01/31 03:44:33;;;;;;;0.53;0.53;;;;;;;4.41;76.53;98889.59;5049206;28;20254;-57
2023/01/31 03:47:05;;;;;;;0.50;0.50;;;;;;;4.36;77.35;98888.84;5050459;28;20196;-57
2023/01/31 03:49:34;;;;;;;1.60;1.50;;;;;;;4.36;77.24;98888.84;5050512;28;20246;-57
2023/01/31 03:52:07;;;;;;;0.50;0.50;;;;;;;4.35;77.17;98902.38;5050647;28;20334;-57
2023/01/31 03:54:39;;;;;;;1.13;1.03;;;;;;;4.34;76.13;98910.81;5050364;28;20196;-57
2023/01/31 03:57:14;;;;;;;0.50;0.50;;;;;;;4.36;75.65;98909.13;5050594;28;20204;-57
2023/01/31 03:59:44;;;;;;;1.33;1.27;;;;;;;4.36;74.91;98909.13;5049672;28;20192;-57
2023/01/31 04:02:14;;;;;;;0.60;0.60;;;;;;;4.37;74.65;98910.78;5050359;28;20219;-57
2023/01/31 04:04:45;;;;;;;0.53;0.53;;;;;;;4.35;75.05;98920.13;5049028;28;20225;-57
2023/01/31 04:07:13;;;;;;;0.50;0.50;;;;;;;4.36;73.84;98916.75;5050021;28;20208;-57
2023/01/31 04:09:40;;;;;;;0.60;0.60;;;;;;;4.37;74.25;98915.88;5051373;28;20346;-57
2023/01/31 04:12:07;;;;;;;0.50;0.50;;;;;;;4.34;75.19;98915.91;5054444;28;20680;-55
2023/01/31 04:14:33;;;;;;;1.10;1.10;;;;;;;4.33;75.85;98921.84;5051738;28;20211;-56
2023/01/31 04:17:00;;;;;;;0.50;0.50;;;;;;;4.31;75.84;98932.00;5052963;28;20200;-55
2023/01/31 04:19:27;;;;;;;0.50;0.50;;;;;;;4.29;75.86;98922.75;5053806;28;20275;-55
2023/01/31 04:21:54;;;;;;;0.50;0.50;;;;;;;4.28;75.80;98938.81;5053851;28;20294;-56
2023/01/31 04:24:22;;;;;;;0.50;0.50;;;;;;;4.08;76.31;98904.38;5054001;28;20208;-55
2023/01/31 04:26:49;;;;;;;0.50;0.50;;;;;;;4.29;76.28;98935.44;5053826;28;20200;-55
2023/01/31 04:29:16;;;;;;;0.60;0.60;;;;;;;4.29;75.58;98943.03;5053827;28;20200;-55
2023/01/31 04:31:43;;;;;;;0.63;0.63;;;;;;;4.29;75.36;98941.34;5052446;28;20635;-56
2023/01/31 04:34:09;;;;;;;0.50;0.50;;;;;;;4.28;75.56;98946.44;5053721;28;20208;-55
2023/01/31 04:36:36;;;;;;;0.70;0.70;;;;;;;4.28;76.55;98951.50;5053588;28;20262;-56
2023/01/31 04:39:03;;;;;;;0.60;0.60;;;;;;;4.22;77.38;98943.13;5053565;28;20204;-55
2023/01/31 04:41:31;;;;;;;0.60;0.60;;;;;;;4.22;77.36;98943.13;5053975;28;20696;-55
2023/01/31 04:43:58;;;;;;;0.60;0.60;;;;;;;4.16;77.51;98949.97;5053440;28;20603;-56
2023/01/31 04:46:25;;;;;;;0.60;0.60;;;;;;;4.20;77.79;98942.28;5053433;28;20200;-55
2023/01/31 04:48:52;;;;;;;0.60;0.60;;;;;;;4.12;77.75;98946.63;5053211;28;20200;-56
2023/01/31 04:51:18;;;;;;;0.50;0.50;;;;;;;4.11;78.16;98939.00;5053333;28;20205;-55
2023/01/31 04:53:45;;;;;;;0.60;0.60;;;;;;;3.99;79.02;98931.56;5053303;28;20282;-55
2023/01/31 04:56:12;;;;;;;0.50;0.50;;;;;;;4.06;78.85;98946.69;5052377;28;20193;-56
2023/01/31 04:58:42;;;;;;;0.60;0.60;;;;;;;3.99;79.68;98945.09;5053551;28;20193;-55
2023/01/31 05:01:09;;;;;;;0.63;0.63;;;;;;;3.97;79.50;98946.81;5052346;28;20271;-55
2023/01/31 05:03:36;;;;;;;0.60;0.60;;;;;;;3.90;80.58;98945.19;5053345;28;20219;-55
2023/01/31 05:06:03;;;;;;;1.53;1.00;;;;;;;3.88;80.68;98946.88;5052954;28;20723;-55
2023/01/31 05:08:29;;;;;;;0.50;0.50;;;;;;;3.83;81.26;98957.94;5053645;28;20193;-56
2023/01/31 05:10:59;;;;;;;1.33;1.33;;;;;;;3.79;81.50;98957.13;5052819;28;20197;-56
2023/01/31 05:13:28;;;;;;;0.60;0.60;;;;;;;3.74;81.22;98958.88;5051004;28;20193;-55
2023/01/31 05:15:57;;;;;;;0.90;0.90;;;;;;;3.75;81.40;98968.13;5052990;28;20775;-55
2023/01/31 05:18:23;;;;;;;0.60;0.60;;;;;;;3.69;81.71;98965.66;5051957;28;20643;-55
2023/01/31 05:20:51;;;;;;;0.90;0.90;;;;;;;3.67;81.76;98963.16;5052595;28;20692;-56
2023/01/31 05:23:18;;;;;;;0.60;0.60;;;;;;;3.65;81.89;98969.09;5053565;28;20196;-55
2023/01/31 05:25:45;;;;;;;0.57;0.57;;;;;;;3.60;82.52;98991.09;5050543;28;20193;-56
2023/01/31 05:28:12;;;;;;;0.77;0.77;;;;;;;3.63;82.46;98986.00;5052756;28;20667;-55
2023/01/31 05:30:38;;;;;;;0.50;0.50;;;;;;;3.58;82.85;98982.69;5052833;28;20200;-56
2023/01/31 05:33:07;;;;;;;0.80;0.80;;;;;;;3.63;82.85;98991.06;5052635;28;20201;-57
2023/01/31 05:35:34;;;;;;;0.50;0.50;;;;;;;3.68;82.86;98999.50;5052614;28;21594;-58
2023/01/31 05:38:01;;;;;;;0.50;0.50;;;;;;;3.68;82.55;98994.44;5052541;28;20303;-57
2023/01/31 05:40:28;;;;;;;0.60;0.60;;;;;;;3.66;83.00;98994.44;5053052;28;20201;-58
2023/01/31 05:42:55;;;;;;;0.50;0.50;;;;;;;3.65;83.35;98994.47;5052584;28;20197;-58
2023/01/31 05:45:23;;;;;;;0.57;0.57;;;;;;;3.64;83.50;99007.97;5052508;28;20669;-57
2023/01/31 05:47:50;;;;;;;0.60;0.60;;;;;;;3.60;83.85;99009.69;5052678;28;20205;-57
2023/01/31 05:50:19;;;;;;;0.60;0.60;;;;;;;3.56;83.74;99019.84;5052277;28;20204;-58
2023/01/31 05:52:50;;;;;;;3.50;1.80;;;;;;;3.61;83.95;99008.84;5051009;28;20204;-57
2023/01/31 05:55:17;;;;;;;0.50;0.50;;;;;;;3.63;83.73;99011.34;5050804;28;20203;-57
2023/01/31 05:57:44;;;;;;;0.60;0.60;;;;;;;3.61;83.72;99005.47;5052113;28;20204;-57
2023/01/31 06:00:12;;;;;;;0.70;0.70;;;;;;;3.65;83.52;99007.13;5052099;28;20657;-58
2023/01/31 06:02:38;;;;;;;1.00;1.00;;;;;;;3.65;82.95;99009.66;5052171;28;20208;-57
2023/01/31 06:05:06;;;;;;;0.60;0.60;;;;;;;3.68;83.10;99009.63;5050034;28;20671;-57
2023/01/31 06:07:34;;;;;;;0.50;0.50;;;;;;;3.72;82.75;99011.25;5052137;28;20197;-57
2023/01/31 06:10:01;;;;;;;0.50;0.50;;;;;;;3.75;82.99;99026.44;5052012;28;20227;-58
2023/01/31 06:12:28;;;;;;;0.50;0.50;;;;;;;3.75;83.34;99026.44;5052363;28;20631;-55
2023/01/31 06:14:55;;;;;;;0.60;0.60;;;;;;;3.70;83.36;99007.91;5051504;28;20196;-55
2023/01/31 06:17:22;;;;;;;0.60;0.60;;;;;;;3.73;83.58;99025.63;5051623;28;20209;-55
2023/01/31 06:19:49;;;;;;;0.70;0.70;;;;;;;3.69;84.31;99026.50;5050103;28;20252;-55
2023/01/31 06:22:16;;;;;;;0.70;0.70;;;;;;;3.67;84.07;99033.28;5051396;28;20228;-55
2023/01/31 06:24:44;;;;;;;0.70;0.70;;;;;;;3.67;84.18;99033.28;5051935;28;20642;-56
2023/01/31 06:27:11;;;;;;;0.60;0.60;;;;;;;3.68;84.74;99045.13;5051520;28;20201;-55
2023/01/31 06:29:38;;;;;;;0.97;0.97;;;;;;;3.80;84.26;99049.22;5051365;28;20612;-56
2023/01/31 06:32:05;;;;;;;0.50;0.50;;;;;;;3.84;84.61;99055.97;5050961;28;20255;-56
2023/01/31 06:34:31;;;;;;;0.70;0.70;;;;;;;3.84;85.09;99043.28;5051303;28;20205;-56
2023/01/31 06:36:58;;;;;;;0.50;0.50;;;;;;;3.94;84.90;99048.22;5050821;28;20205;-55
2023/01/31 06:39:25;;;;;;;0.50;0.50;;;;;;;4.04;85.08;99054.09;5049112;28;20283;-56
2023/01/31 06:41:53;;;;;;;0.70;0.70;;;;;;;4.01;85.24;99032.13;5050936;28;20236;-55
2023/01/31 06:44:20;;;;;;;0.87;0.87;;;;;;;4.27;84.31;99057.22;5051072;28;20196;-55
2023/01/31 06:46:47;;;;;;;4.43;1.27;;;;;;;4.34;84.05;99058.00;5050831;28;20197;-55
2023/01/31 06:49:13;;;;;;;0.60;0.60;;;;;;;4.44;83.54;99054.50;5051248;28;20677;-55
2023/01/31 06:51:40;;;;;;;0.80;0.80;;;;;;;4.54;83.49;99061.16;5050638;28;20188;-56
2023/01/31 06:54:10;;;;;;;0.50;0.50;;;;;;;4.56;83.93;99046.75;5050686;28;20262;-55
2023/01/31 06:56:37;;;;;;;0.60;0.60;;;;;;;4.57;83.81;99053.50;5050712;28;20207;-56
2023/01/31 06:59:05;;;;;;;0.63;0.63;;;;;;;4.64;84.45;99067.81;5050800;28;20197;-55
2023/01/31 07:01:32;;;;;;;0.70;0.70;;;;;;;4.64;83.08;99067.81;5050613;28;20208;-56
2023/01/31 07:03:58;;;;;;;0.60;0.60;;;;;;;4.67;82.73;99063.53;5050646;28;20250;-55
2023/01/31 07:06:25;;;;;;;0.80;0.80;;;;;;;4.69;82.60;99071.13;5050750;28;20207;-55
2023/01/31 07:08:52;;;;;;;0.50;0.50;;;;;;;4.71;82.35;99065.19;5050941;28;20204;-56
2023/01/31 07:11:19;;;;;;;0.70;0.70;;;;;;;4.76;82.64;99077.81;5049934;28;20197;-56
2023/01/31 07:13:46;;;;;;;0.70;0.70;;;;;;;4.74;82.89;99079.53;5050526;28;20681;-56
2023/01/31 07:16:15;;;;;;;0.70;0.70;;;;;;;4.75;82.71;99068.50;5050564;28;20657;-56
2023/01/31 07:18:42;;;;;;;0.63;0.63;;;;;;;4.78;83.15;99081.19;5049362;28;20201;-56
2023/01/31 07:21:09;;;;;;;0.60;0.60;;;;;;;4.84;83.69;99075.19;5050490;28;20668;-55
2023/01/31 07:23:36;;;;;;;0.50;0.50;;;;;;;4.81;83.17;99080.31;5050727;28;20207;-55
2023/01/31 07:26:04;;;;;;;0.50;0.50;;;;;;;4.83;83.20;99084.50;5050514;28;20196;-56
2023/01/31 07:28:30;;;;;;;0.50;0.50;;;;;;;4.86;82.81;99094.63;5050572;28;20262;-56
2023/01/31 07:31:04;;;;;;;0.60;0.60;;;;;;;4.90;83.09;99097.97;5050650;28;20196;-56
2023/01/31 07:33:32;;;;;;;0.80;0.80;;;;;;;4.94;83.33;99089.47;5049637;28;20266;-55
2023/01/31 07:36:01;;;;;;;0.50;0.50;;;;;;;5.00;82.59;99091.91;5049289;28;20207;-56
2023/01/31 07:38:28;;;;;;;0.60;0.60;;;;;;;5.01;82.93;99093.59;5050479;28;20211;-56
2023/01/31 07:40:59;;;;;;;0.50;0.50;;;;;;;5.05;83.03;99091.00;5050540;28;20200;-55
2023/01/31 07:43:25;;;;;;;0.50;0.50;;;;;;;5.05;82.77;99106.22;5049881;28;20224;-56
2023/01/31 07:45:52;;;;;;;0.50;0.50;;;;;;;5.12;82.63;99109.53;5054436;28;20196;-55
2023/01/31 07:48:22;;;;;;;0.53;0.53;;;;;;;5.14;82.80;99105.25;5054698;28;20587;-56
2023/01/31 07:50:50;;;;;;;0.50;0.50;;;;;;;5.14;82.65;99111.19;5054734;28;20549;-57
2023/01/31 07:53:17;;;;;;;0.80;0.80;;;;;;;5.10;83.30;99104.50;5054839;28;20196;-55
2023/01/31 07:55:46;;;;;;;0.57;0.57;;;;;;;5.11;83.41;99106.16;5054362;28;20193;-55
2023/01/31 07:58:13;;;;;;;0.50;0.50;;;;;;;5.16;82.32;99108.66;5054427;28;20200;-56
2023/01/31 08:03:35;;;;;;;0.50;0.50;;;;;;;5.23;81.45;99121.22;5052034;28;20313;-55
2023/01/31 08:06:08;;;;;;;0.50;0.50;;;;;;;5.27;80.85;99117.78;5052556;28;20227;-56
2023/01/31 08:08:35;;;;;;;4.60;1.13;;;;;;;5.24;81.46;99127.16;5053196;28;20204;-55
2023/01/31 08:11:03;;;;;;;0.73;0.73;;;;;;;5.28;81.68;99127.09;5053864;28;20197;-56
2023/01/31 08:13:30;;;;;;;0.50;0.50;;;;;;;5.29;81.41;99123.72;5054346;28;20653;-55
2023/01/31 08:15:58;;;;;;;0.60;0.60;;;;;;;5.29;81.28;99118.63;5052715;28;20207;-56
2023/01/31 08:18:25;;;;;;;0.60;0.60;;;;;;;5.38;81.69;99125.28;5053776;28;20205;-55
2023/01/31 08:20:52;;;;;;;1.43;1.43;;;;;;;5.46;80.77;99137.88;5053947;28;20204;-55
2023/01/31 08:23:20;;;;;;;0.53;0.53;;;;;;;5.51;80.80;99131.88;5053645;28;20224;-55
2023/01/31 08:25:46;;;;;;;0.60;0.60;;;;;;;5.53;81.26;99130.13;5053642;28;20200;-55
2023/01/31 08:28:14;;;;;;;0.50;0.50;;;;;;;5.68;79.99;99134.19;5053922;28;20265;-56
2023/01/31 08:30:41;;;;;;;0.50;0.50;;;;;;;5.68;80.07;99129.09;5053954;28;20219;-56
2023/01/31 08:33:08;;;;;;;0.50;0.50;;;;;;;5.76;80.14;99132.34;5053498;28;20208;-57
2023/01/31 08:35:35;;;;;;;0.57;0.57;;;;;;;5.80;80.47;99129.75;5053729;28;20196;-55
2023/01/31 08:38:02;;;;;;;0.80;0.80;;;;;;;5.88;78.90;99134.72;5053575;28;20669;-56
2023/01/31 08:40:31;;;;;;;0.50;0.50;;;;;;;5.95;78.59;99138.84;5053450;28;20201;-56
2023/01/31 08:43:00;;;;;;;0.50;0.50;;;;;;;6.00;79.86;99137.09;5053713;28;20289;-56
2023/01/31 08:45:27;;;;;;;0.53;0.53;;;;;;;6.04;79.74;99133.63;5049695;28;20208;-56
2023/01/31 08:47:55;;;;;;;0.50;0.50;;;;;;;6.10;79.23;99140.34;5053348;28;20201;-56
2023/01/31 08:50:22;;;;;;;0.60;0.60;;;;;;;6.15;78.88;99147.03;5052848;28;20203;-56
2023/01/31 08:52:53;;;;;;;0.70;0.70;;;;;;;6.05;78.69;99120.03;5053220;28;20657;-56
2023/01/31 08:55:20;;;;;;;0.67;0.67;;;;;;;6.31;79.97;99138.25;5052521;28;20196;-56
2023/01/31 08:57:50;;;;;;;2.03;1.93;;;;;;;6.41;79.45;99144.03;5053367;28;20193;-56
2023/01/31 09:00:18;;;;;;;0.60;0.60;;;;;;;6.40;78.86;99136.44;5052449;28;20204;-56
2023/01/31 09:02:46;;;;;;;0.50;0.50;;;;;;;6.47;77.94;99143.06;5053438;28;20320;-55
2023/01/31 09:05:13;;;;;;;0.70;0.70;;;;;;;6.61;77.48;99151.31;5052901;28;20224;-56
2023/01/31 09:07:40;;;;;;;1.00;1.00;;;;;;;6.75;78.99;99139.19;5053034;28;20197;-55
2023/01/31 09:10:08;;;;;;;0.60;0.60;;;;;;;7.04;80.13;99152.19;5053104;28;20201;-55
2023/01/31 09:12:35;;;;;;;0.60;0.60;;;;;;;6.93;76.86;99103.13;5052651;28;20193;-56
2023/01/31 09:15:04;;;;;;;0.50;0.50;;;;;;;7.09;77.22;99127.44;5052867;28;20254;-56
2023/01/31 09:17:31;;;;;;;0.50;0.50;;;;;;;7.30;75.95;99149.91;5052808;28;20283;-56
2023/01/31 09:19:58;;;;;;;0.47;0.47;;;;;;;7.45;74.85;99137.72;5052987;28;20193;-55
2023/01/31 09:22:25;;;;;;;0.50;0.50;;;;;;;7.62;74.86;99150.97;5052889;28;20310;-55
2023/01/31 09:24:52;;;;;;;0.60;0.60;;;;;;;7.73;73.34;99149.00;5052791;28;20196;-55
2023/01/31 09:27:18;;;;;;;0.40;0.40;;;;;;;7.74;72.07;99145.56;5053119;28;20207;-56
2023/01/31 09:29:45;;;;;;;0.60;0.60;;;;;;;7.72;74.04;99143.03;5052749;28;20672;-55
2023/01/31 09:32:13;;;;;;;0.50;0.50;;;;;;;7.78;74.55;99136.97;5052661;28;20204;-56
2023/01/31 09:34:40;;;;;;;1.43;1.43;;;;;;;7.70;72.86;99139.69;5052365;28;20199;-56
2023/01/31 09:37:07;;;;;;;0.63;0.63;;;;;;;7.67;74.20;99138.94;5052525;28;20203;-55
2023/01/31 09:39:34;;;;;;;0.47;0.47;;;;;;;7.86;72.62;99140.19;5052488;28;20208;-56
2023/01/31 09:42:13;;;;;;;0.50;0.50;;;;;;;7.98;73.54;99134.78;5051093;28;20665;-56
2023/01/31 09:44:41;;;;;;;0.47;0.47;;;;;;;8.06;70.39;99130.34;5052003;28;20200;-56
2023/01/31 09:47:14;;;;;;;0.57;0.57;;;;;;;8.08;71.57;99113.25;5052550;28;20208;-55
2023/01/31 09:49:48;;;;;;;0.43;0.43;;;;;;;8.29;71.07;99120.44;5052148;28;20251;-56
2023/01/31 09:52:15;;;;;;;0.50;0.50;;;;;;;8.30;70.38;99116.97;5052095;28;20205;-56
2023/01/31 09:54:42;;;;;;;0.50;0.50;;;;;;;8.49;70.29;99107.16;5052114;28;20192;-56
2023/01/31 09:57:23;;;;;;;0.40;0.40;;;;;;;8.49;68.43;99094.38;5051368;28;20193;-55
2023/01/31 10:00:04;;;;;;;0.40;0.40;;;;;;;8.69;69.67;99091.28;5051209;28;20196;-55
2023/01/31 10:02:58;;;;;;;0.50;0.50;;;;;;;8.74;71.04;99082.59;5050912;28;20224;-56
2023/01/31 10:05:37;;;;;;;0.60;0.60;;;;;;;8.88;69.23;99087.34;5025314;28;20297;-56
2023/01/31 10:08:13;;;;;;;0.60;0.60;;;;;;;8.93;68.59;99093.16;5050914;28;20197;-56
2023/01/31 10:10:46;;;;;;;0.70;0.70;;;;;;;9.00;68.36;99088.69;5049243;28;20204;-55
2023/01/31 10:13:22;;;;;;;1.10;1.10;;;;;;;8.99;69.03;99082.75;5052030;28;20200;-55
2023/01/31 10:15:53;;;;;;;0.50;0.50;;;;;;;9.07;68.10;99074.84;5051655;28;20208;-56
2023/01/31 10:18:26;;;;;;;0.47;0.47;;;;;;;9.22;68.57;99084.63;5052357;28;20225;-56
2023/01/31 10:20:59;;;;;;;0.60;0.60;;;;;;;9.18;64.22;99086.44;5051298;28;20208;-56
2023/01/31 10:23:30;;;;;;;0.70;0.70;;;;;;;9.21;64.33;99086.34;5051946;28;20259;-56
2023/01/31 10:26:01;;;;;;;0.47;0.47;;;;;;;9.28;65.58;99077.59;5051668;28;20199;-57
2023/01/31 10:28:34;;;;;;;0.50;0.50;;;;;;;9.24;64.37;99076.03;5051565;28;20200;-57
2023/01/31 10:31:10;;;;;;;0.57;0.57;;;;;;;9.14;63.51;99066.97;5051501;28;20196;-58
2023/01/31 10:33:43;;;;;;;0.50;0.50;;;;;;;9.22;63.77;99069.28;5066258;28;20200;-57
2023/01/31 10:36:17;;;;;;;0.50;0.50;;;;;;;9.33;64.87;99062.97;5051295;28;20692;-57
2023/01/31 10:38:55;;;;;;;0.40;0.40;;;;;;;9.51;65.29;99061.56;5051470;28;20580;-57
2023/01/31 10:41:31;;;;;;;0.57;0.57;;;;;;;9.53;64.21;99048.72;5051407;28;20723;-56
2023/01/31 10:44:06;;;;;;;0.97;0.97;;;;;;;9.46;64.39;99054.03;5050704;28;20704;-57
2023/01/31 10:46:34;;;;;;;0.50;0.50;;;;;;;9.55;64.06;99036.72;5048284;28;20203;-57
2023/01/31 10:49:02;;;;;;;0.70;0.70;;;;;;;9.67;63.07;99046.56;5051536;28;20569;-57
2023/01/31 10:51:46;;;;;;;0.50;0.50;;;;;;;9.69;63.25;99044.81;5051625;28;20250;-57
2023/01/31 10:54:29;;;;;;;0.57;0.57;;;;;;;9.81;61.97;99031.59;5050709;28;20204;-57
2023/01/31 10:56:58;;;;;;;0.40;0.40;;;;;;;9.91;64.02;99044.06;5051439;28;20211;-57
2023/01/31 10:59:31;;;;;;;0.43;0.43;;;;;;;9.73;60.43;99046.34;5050442;28;20691;-56
2023/01/31 11:01:58;;;;;;;0.53;0.53;;;;;;;9.84;61.95;99039.16;5051066;28;20206;-56
2023/01/31 11:04:30;;;;;;;0.50;0.50;;;;;;;9.91;62.77;99040.66;5045691;28;20224;-57
2023/01/31 11:07:00;;;;;;;0.60;0.60;;;;;;;9.98;62.79;99031.88;5049424;28;20384;-57
2023/01/31 11:09:31;;;;;;;0.40;0.40;;;;;;;10.09;61.92;99032.34;5048203;28;20200;-57
2023/01/31 11:12:00;;;;;;;0.50;0.50;;;;;;;10.09;60.93;99039.19;5051029;28;20205;-57
2023/01/31 11:14:28;;;;;;;0.70;0.70;;;;;;;9.99;61.95;99041.22;5050729;28;20200;-57
2023/01/31 11:17:01;;;;;;;1.57;1.57;;;;;;;9.99;64.07;99029.25;5050895;28;20196;-56
2023/01/31 11:19:35;;;;;;;0.70;0.70;;;;;;;10.14;60.87;99037.34;5050525;28;20205;-57
2023/01/31 11:22:04;;;;;;;0.50;0.50;;;;;;;10.07;61.46;99038.41;5051029;28;20200;-57
2023/01/31 11:24:35;;;;;;;1.43;1.43;;;;;;;10.02;62.31;99039.38;5050623;28;20228;-56
2023/01/31 11:27:05;;;;;;;0.50;0.50;;;;;;;9.97;61.84;99043.00;5050778;28;20201;-57
2023/01/31 11:29:38;;;;;;;0.50;0.50;;;;;;;9.86;62.39;99042.50;5049912;28;20197;-57
2023/01/31 11:32:13;;;;;;;0.50;0.50;;;;;;;9.72;62.31;99044.69;5051051;28;20204;-56
2023/01/31 11:34:55;;;;;;;0.50;0.50;;;;;;;9.60;63.46;99045.06;5050983;28;20192;-57
2023/01/31 11:37:24;;;;;;;0.40;0.40;;;;;;;9.57;63.01;99037.50;5050619;28;21643;-56
2023/01/31 11:39:56;;;;;;;0.60;0.60;;;;;;;9.45;63.35;99034.44;5051037;28;20192;-57
2023/01/31 11:42:23;;;;;;;0.60;0.60;;;;;;;9.31;63.38;99038.31;5050785;28;20201;-57
2023/01/31 11:44:59;;;;;;;0.60;0.60;;;;;;;9.13;63.43;99041.44;5050861;28;20338;-57
2023/01/31 11:47:35;;;;;;;0.40;0.40;;;;;;;9.03;63.89;99038.31;5050620;28;20595;-56
2023/01/31 11:50:03;;;;;;;0.63;0.63;;;;;;;8.87;66.23;99032.81;5050845;28;20573;-57
2023/01/31 11:52:33;;;;;;;0.40;0.40;;;;;;;8.80;66.50;99033.03;5050394;28;20660;-56
2023/01/31 11:55:05;;;;;;;0.50;0.50;;;;;;;8.74;66.45;99031.50;5050808;28;20292;-56
2023/01/31 11:57:34;;;;;;;0.40;0.40;;;;;;;8.67;66.90;99029.16;5049908;28;20696;-57
2023/01/31 12:00:06;;;;;;;0.60;0.60;;;;;;;8.58;67.49;99035.38;5050654;28;20205;-57
2023/01/31 12:02:37;;;;;;;0.50;0.50;;;;;;;8.55;66.51;99025.25;5050577;28;20660;-57